Main page
METAR-TAF:

METAR-TAF

Airports :

Daegu International Airport

Daegu, South Korea

latitude: 35-54N, longitude: 128-39E, elevation: 35 m

Current weather observation

The report was made 29 minutes ago, at 11:00 UTC
Wind 8 kt from the Southeast
Temperature 2°C
Humidity 87%
Pressure 1028 hPa
Visibility: 8000 m
Few clouds at a height of 2000 ft
Broken clouds at a height of 2500 ft
Overcast at a height of 4000 ft
light drizzle,

METAR: RKTN 221100Z 14008KT 8000 -DZ FEW020 BKN025 OVC040 02/00 Q1028

Time: 20:29 (11:29 UTC)

Forecast

The report was made 1 hour and 24 minutes ago, at 10:05 UTC
Forecast valid from 22 at 10 UTC to 23 at 12 UTC
Wind 8 kt from the East/Southeast
Visibility: 8000 m
Broken clouds at a height of 3000 ft
Overcast at a height of 4000 ft
light rain,

TAF: RKTN 221005Z 2210/2312 12008KT 8000 -RA BKN030 OVC040 TN01/2221Z TX07/2306Z

Weather observations and forecasts of more than 4000 airports (METAR and TAF reports).

The available stations are represented by yellow and red dots on the map.

Hover mouse over dot to see the name of the station.

Then click to see weather observations and forecasts.

To change the map : click on the green buttons with a black cross to zoom in, on the green button with a dash to zoom out, or on the green arrows for adjacent maps.


METAR-TAF: